createdAt,value
2023-01-28T00:03:37.652Z,101121.73
2023-01-28T00:08:39.738Z,101121.41
2023-01-28T00:13:41.739Z,101111.17
2023-01-28T00:18:43.399Z,101111.34
2023-01-28T00:23:51.521Z,101114.08
2023-01-28T00:28:53.781Z,101108.80
2023-01-28T00:33:56.987Z,101106.75
2023-01-28T00:38:59.595Z,101109.13
2023-01-28T00:44:01.095Z,101110.33
2023-01-28T00:49:02.664Z,101111.87
2023-01-28T00:54:04.337Z,101116.33
2023-01-28T00:59:05.911Z,101111.37
2023-01-28T01:04:07.483Z,101115.98
2023-01-28T01:09:11.322Z,101114.43
2023-01-28T01:14:12.776Z,101105.02
2023-01-28T01:19:14.248Z,101106.55
2023-01-28T01:24:15.727Z,101105.36
2023-01-28T01:29:17.294Z,101112.00
2023-01-28T01:34:18.861Z,101111.98
2023-01-28T01:39:20.540Z,101109.08
2023-01-28T01:44:59.704Z,101110.79
2023-01-28T01:50:07.625Z,101102.93
2023-01-28T01:55:13.495Z,101095.09
2023-01-28T02:00:16.201Z,101084.66
2023-01-28T02:05:20.713Z,101078.86
2023-01-28T02:10:24.041Z,101082.63
2023-01-28T02:15:26.439Z,101079.90
2023-01-28T02:20:46.338Z,101086.73
2023-01-28T02:25:57.024Z,101092.36
2023-01-28T02:31:10.562Z,101088.27
2023-01-28T02:36:23.588Z,101083.31
2023-01-28T02:41:32.875Z,101080.58
2023-01-28T02:46:55.637Z,101080.06
2023-01-28T02:52:45.135Z,101078.17
2023-01-28T02:58:19.682Z,101074.08
2023-01-28T03:03:35.180Z,101071.69
2023-01-28T03:09:04.923Z,101077.33
2023-01-28T03:14:26.354Z,101077.66
2023-01-28T03:19:46.871Z,101075.28
2023-01-28T03:25:10.765Z,101074.27
2023-01-28T03:30:37.149Z,101070.52
2023-01-28T03:35:58.152Z,101070.85
2023-01-28T03:41:02.954Z,101070.52
2023-01-28T03:46:05.958Z,101072.39
2023-01-28T03:51:07.785Z,101077.86
2023-01-28T03:56:09.354Z,101080.94
2023-01-28T04:01:11.133Z,101075.98
2023-01-28T04:06:12.662Z,101079.23
2023-01-28T04:11:19.506Z,101078.70
2023-01-28T04:16:21.138Z,101074.94
2023-01-28T04:21:23.059Z,101070.15
2023-01-28T04:26:24.629Z,101067.26
2023-01-28T04:31:26.244Z,101067.44
2023-01-28T04:36:27.982Z,101067.27
2023-01-28T04:41:30.061Z,101067.45
2023-01-28T04:46:31.769Z,101070.85
2023-01-28T04:51:33.744Z,101084.51
2023-01-28T04:56:35.297Z,101085.70
2023-01-28T05:01:36.767Z,101086.39
2023-01-28T05:06:38.242Z,101092.39
2023-01-28T05:11:39.811Z,101094.96
2023-01-28T05:16:41.381Z,101096.84
2023-01-28T05:21:42.848Z,101098.89
2023-01-28T05:26:44.522Z,101104.69
2023-01-28T05:31:47.942Z,101101.62
2023-01-28T05:36:49.410Z,101106.90
2023-01-28T05:41:50.883Z,101107.92
2023-01-28T05:46:52.347Z,101109.10
2023-01-28T05:51:54.454Z,101116.26
2023-01-28T05:56:56.022Z,101110.96
2023-01-28T06:01:57.576Z,101115.91
2023-01-28T06:06:59.253Z,101119.65
2023-01-28T06:12:00.823Z,101127.68
2023-01-28T06:17:02.506Z,101129.89
2023-01-28T06:22:03.977Z,101131.61
2023-01-28T06:27:05.551Z,101135.38
2023-01-28T06:32:07.051Z,101132.30
2023-01-28T06:37:08.691Z,101130.42
2023-01-28T06:42:10.171Z,101131.96
2023-01-28T06:47:11.941Z,101136.23
2023-01-28T06:52:13.407Z,101140.52
2023-01-28T06:57:15.294Z,101136.77
2023-01-28T07:02:16.861Z,101136.44
2023-01-28T07:07:18.334Z,101141.94
2023-01-28T07:12:19.800Z,101142.83
2023-01-28T07:17:21.308Z,101146.62
2023-01-28T07:22:22.841Z,101140.67
2023-01-28T07:27:24.315Z,101141.75
2023-01-28T07:32:27.119Z,101148.80
2023-01-28T07:37:28.583Z,101155.17
2023-01-28T07:42:30.156Z,101162.39
2023-01-28T07:47:31.789Z,101164.48
2023-01-28T07:52:41.975Z,101156.98
2023-01-28T07:57:54.444Z,101154.80
2023-01-28T08:02:58.577Z,101158.94
2023-01-28T08:08:00.447Z,101155.36
2023-01-28T08:13:02.428Z,101154.71
2023-01-28T08:18:05.637Z,101155.92
2023-01-28T08:23:12.024Z,101161.25
2023-01-28T08:28:15.239Z,101164.36
2023-01-28T08:33:18.155Z,101161.27
2023-01-28T08:38:20.028Z,101161.44
2023-01-28T08:43:21.696Z,101160.09
2023-01-28T08:48:23.172Z,101153.05
2023-01-28T08:53:24.638Z,101161.08
2023-01-28T08:58:26.208Z,101150.91
2023-01-28T09:03:27.686Z,101145.39
2023-01-28T09:08:29.353Z,101146.02
2023-01-28T09:13:31.335Z,101149.20
2023-01-28T09:18:33.011Z,101147.57
2023-01-28T09:23:38.145Z,101140.31
2023-01-28T09:28:39.844Z,101142.47
2023-01-28T09:33:41.426Z,101140.32
2023-01-28T09:38:42.820Z,101144.01
2023-01-28T09:43:54.184Z,101134.98
2023-01-28T09:48:56.884Z,101132.29
2023-01-28T09:54:04.910Z,101128.89
2023-01-28T09:59:19.295Z,101126.58
2023-01-28T10:04:29.875Z,101121.16
2023-01-28T10:09:44.958Z,101127.23
2023-01-28T10:15:20.422Z,101129.39
2023-01-28T10:20:30.392Z,101136.50
2023-01-28T10:25:32.997Z,101138.86
2023-01-28T10:30:46.074Z,101135.23
2023-01-28T10:35:48.934Z,101139.67
2023-01-28T10:40:51.535Z,101135.89
2023-01-28T10:46:17.921Z,101130.77
2023-01-28T10:51:30.316Z,101132.67
2023-01-28T10:56:35.469Z,101125.92
2023-01-28T11:01:45.049Z,101122.48
2023-01-28T11:07:06.069Z,101114.38
2023-01-28T11:12:20.432Z,101110.90
2023-01-28T11:17:25.200Z,101106.17
2023-01-28T11:22:35.561Z,101109.93
2023-01-28T11:27:37.128Z,101108.60
2023-01-28T11:32:38.598Z,101108.23
2023-01-28T11:37:48.067Z,101104.27
2023-01-28T11:42:52.086Z,101099.23
2023-01-28T11:48:10.045Z,101096.20
2023-01-28T11:53:26.464Z,101096.88
2023-01-28T11:58:27.945Z,101095.98
2023-01-28T12:03:41.043Z,101091.75
2023-01-28T12:09:11.117Z,101093.00
2023-01-28T12:14:18.596Z,101077.96
2023-01-28T12:19:31.773Z,101081.86
2023-01-28T12:25:08.779Z,101074.39
2023-01-28T12:30:28.885Z,101070.77
2023-01-28T12:35:44.074Z,101063.85
2023-01-28T12:40:53.431Z,101056.11
2023-01-28T12:46:00.473Z,101056.05
2023-01-28T12:51:10.203Z,101059.36
2023-01-28T12:56:19.346Z,101056.31
2023-01-28T13:01:29.319Z,101052.09
2023-01-28T13:07:04.754Z,101051.33
2023-01-28T13:12:07.159Z,101049.84
2023-01-28T13:17:24.213Z,101049.38
2023-01-28T13:22:35.411Z,101047.73
2023-01-28T13:27:37.493Z,101041.42
2023-01-28T13:32:39.019Z,101043.19
2023-01-28T13:37:46.436Z,101034.02
2023-01-28T13:43:23.481Z,101039.39
2023-01-28T13:48:31.765Z,101042.16
2023-01-28T13:53:48.751Z,101050.44
2023-01-28T13:59:10.694Z,101052.89
2023-01-28T14:04:30.757Z,101053.08
2023-01-28T14:09:47.487Z,101044.36
2023-01-28T14:14:58.220Z,101048.64
2023-01-28T14:20:01.115Z,101049.16
2023-01-28T14:25:03.017Z,101052.40
2023-01-28T14:30:10.919Z,101053.10
2023-01-28T14:35:19.468Z,101050.86
2023-01-28T14:40:22.069Z,101051.86
2023-01-28T14:45:48.212Z,101050.30
2023-01-28T14:51:00.528Z,101057.14
2023-01-28T14:56:39.209Z,101048.58
2023-01-28T15:01:47.696Z,101043.27
2023-01-28T15:06:49.277Z,101039.30
2023-01-28T15:11:54.946Z,101026.80
2023-01-28T15:16:57.455Z,101015.49
2023-01-28T15:22:05.640Z,101022.30
2023-01-28T15:27:17.070Z,101016.99
2023-01-28T15:32:29.711Z,101008.63
2023-01-28T15:37:31.278Z,100998.36
2023-01-28T15:42:33.633Z,101013.54
2023-01-28T15:47:35.265Z,101012.64
2023-01-28T15:52:40.295Z,101004.41
2023-01-28T15:57:41.776Z,101004.89
2023-01-28T16:02:52.324Z,100999.91
2023-01-28T16:07:55.831Z,101010.14
2023-01-28T16:13:06.628Z,101015.05
2023-01-28T16:18:31.745Z,101016.75
2023-01-28T16:23:33.253Z,101026.66
2023-01-28T16:28:34.825Z,101037.09
2023-01-28T16:33:36.299Z,101036.09
2023-01-28T16:38:37.844Z,101037.30
2023-01-28T16:43:39.563Z,101034.73
2023-01-28T16:48:41.321Z,101035.73
2023-01-28T16:53:44.224Z,101038.45
2023-01-28T16:58:46.928Z,101044.58
2023-01-28T17:03:48.675Z,101052.93
2023-01-28T17:08:50.272Z,101057.73
2023-01-28T17:13:51.849Z,101052.11
2023-01-28T17:18:54.196Z,101045.46
2023-01-28T17:23:57.071Z,101039.30
2023-01-28T17:28:59.739Z,101036.21
2023-01-28T17:34:02.312Z,101028.35
2023-01-28T17:39:06.467Z,101018.09
2023-01-28T17:44:11.520Z,101011.94
2023-01-28T17:49:13.504Z,101014.17
2023-01-28T17:54:16.406Z,101012.98
2023-01-28T17:59:18.086Z,101004.27
2023-01-28T18:04:19.654Z,101004.42
2023-01-28T18:09:21.232Z,101007.29
2023-01-28T18:14:22.800Z,101014.96
2023-01-28T18:19:24.271Z,101013.29
2023-01-28T18:24:28.715Z,101020.84
2023-01-28T18:29:31.264Z,101017.61
2023-01-28T18:34:33.937Z,101025.61
2023-01-28T18:39:35.476Z,101019.78
2023-01-28T18:44:37.258Z,101028.45
2023-01-28T18:49:41.907Z,101020.26
2023-01-28T18:54:43.373Z,101015.34
2023-01-28T18:59:44.943Z,101017.56
2023-01-28T19:04:46.516Z,101010.56
2023-01-28T19:09:48.292Z,101004.75
2023-01-28T19:14:49.864Z,101000.13
2023-01-28T19:19:51.641Z,100999.10
2023-01-28T19:24:53.352Z,101009.70
2023-01-28T19:29:55.130Z,101010.23
2023-01-28T19:34:57.079Z,101002.37
2023-01-28T19:39:58.550Z,101011.58
2023-01-28T19:45:01.926Z,101005.75
2023-01-28T19:50:05.683Z,100992.95
2023-01-28T19:55:08.137Z,100982.89
2023-01-28T20:00:10.452Z,100983.23
2023-01-28T20:05:11.941Z,100983.04
2023-01-28T20:10:13.424Z,100988.65
2023-01-28T20:15:15.154Z,100987.10
2023-01-28T20:20:17.069Z,100988.47
2023-01-28T20:25:18.795Z,100990.17
2023-01-28T20:30:25.629Z,100984.02
2023-01-28T20:35:27.626Z,100985.88
2023-01-28T20:40:30.987Z,100979.73
2023-01-28T20:45:32.916Z,100979.92
2023-01-28T20:50:35.482Z,100975.67
2023-01-28T20:55:36.988Z,100970.70
2023-01-28T21:00:38.459Z,100967.25
2023-01-28T21:05:39.924Z,100955.14
2023-01-28T21:10:42.021Z,100947.63
2023-01-28T21:15:55.874Z,100947.30
2023-01-28T21:21:06.562Z,100950.35
2023-01-28T21:26:09.463Z,100952.59
2023-01-28T21:31:13.799Z,100945.78
2023-01-28T21:36:16.606Z,100949.52
2023-01-28T21:41:18.375Z,100954.30
2023-01-28T21:46:21.308Z,100948.32
2023-01-28T21:51:35.140Z,100948.70
2023-01-28T21:56:37.030Z,100952.13
2023-01-28T22:01:38.563Z,100944.80
2023-01-28T22:06:41.709Z,100938.98
2023-01-28T22:11:44.494Z,100943.41
2023-01-28T22:16:46.315Z,100949.21
2023-01-28T22:21:48.369Z,100947.50
2023-01-28T22:26:51.489Z,100933.88
2023-01-28T22:31:54.061Z,100933.53
2023-01-28T22:36:55.551Z,100929.27
2023-01-28T22:41:57.113Z,100926.36
2023-01-28T22:46:58.586Z,100922.80
2023-01-28T22:52:00.056Z,100915.48
2023-01-28T22:57:01.528Z,100906.10
2023-01-28T23:02:03.024Z,100902.16
2023-01-28T23:07:04.976Z,100890.90
2023-01-28T23:12:06.865Z,100883.23
2023-01-28T23:17:27.478Z,100873.17
2023-01-28T23:22:50.655Z,100866.53
2023-01-28T23:27:52.127Z,100841.10
2023-01-28T23:32:57.100Z,100831.05
2023-01-28T23:37:58.560Z,100833.43
2023-01-28T23:43:00.527Z,100841.45
2023-01-28T23:48:03.843Z,100842.33
2023-01-28T23:53:12.583Z,100835.85
2023-01-28T23:58:14.053Z,100825.44
